sensor_id;sensor_type;location;lat;lon;timestamp;P1;durP1;ratioP1;P2;durP2;ratioP2
12141;SDS011;6134;59.284;18.022;2022-11-15T00:01:17;1.00;;;1.00;;
12141;SDS011;6134;59.284;18.022;2022-11-15T00:04:05;0.98;;;0.98;;
12141;SDS011;6134;59.284;18.022;2022-11-15T00:06:52;1.20;;;1.02;;
12141;SDS011;6134;59.284;18.022;2022-11-15T00:09:40;0.95;;;0.90;;
12141;SDS011;6134;59.284;18.022;2022-11-15T00:12:31;0.77;;;0.77;;
12141;SDS011;6134;59.284;18.022;2022-11-15T00:15:19;0.70;;;0.70;;
12141;SDS011;6134;59.284;18.022;2022-11-15T00:18:06;0.70;;;0.70;;
12141;SDS011;6134;59.284;18.022;2022-11-15T00:21:02;0.70;;;0.70;;
12141;SDS011;6134;59.284;18.022;2022-11-15T00:23:50;1.10;;;1.00;;
12141;SDS011;6134;59.284;18.022;2022-11-15T00:26:37;1.15;;;1.02;;
12141;SDS011;6134;59.284;18.022;2022-11-15T00:29:26;1.00;;;1.00;;
12141;SDS011;6134;59.284;18.022;2022-11-15T00:32:13;1.10;;;1.00;;
12141;SDS011;6134;59.284;18.022;2022-11-15T00:35:00;0.73;;;0.73;;
12141;SDS011;6134;59.284;18.022;2022-11-15T00:37:48;1.00;;;1.00;;
12141;SDS011;6134;59.284;18.022;2022-11-15T00:40:35;0.90;;;0.90;;
12141;SDS011;6134;59.284;18.022;2022-11-15T00:43:22;1.02;;;0.90;;
12141;SDS011;6134;59.284;18.022;2022-11-15T00:46:11;1.30;;;0.98;;
12141;SDS011;6134;59.284;18.022;2022-11-15T00:48:58;1.10;;;1.00;;
12141;SDS011;6134;59.284;18.022;2022-11-15T00:51:45;1.10;;;1.00;;
12141;SDS011;6134;59.284;18.022;2022-11-15T00:54:33;1.17;;;1.08;;
12141;SDS011;6134;59.284;18.022;2022-11-15T00:57:20;0.90;;;0.90;;
12141;SDS011;6134;59.284;18.022;2022-11-15T01:00:07;1.33;;;0.90;;
12141;SDS011;6134;59.284;18.022;2022-11-15T01:02:56;1.23;;;1.00;;
12141;SDS011;6134;59.284;18.022;2022-11-15T01:05:43;1.55;;;1.45;;
12141;SDS011;6134;59.284;18.022;2022-11-15T01:08:30;1.00;;;0.90;;
12141;SDS011;6134;59.284;18.022;2022-11-15T01:11:17;1.25;;;1.15;;
12141;SDS011;6134;59.284;18.022;2022-11-15T01:14:04;1.33;;;1.23;;
12141;SDS011;6134;59.284;18.022;2022-11-15T01:16:51;1.17;;;1.08;;
12141;SDS011;6134;59.284;18.022;2022-11-15T01:19:40;1.85;;;1.35;;
12141;SDS011;6134;59.284;18.022;2022-11-15T01:22:27;1.75;;;1.17;;
12141;SDS011;6134;59.284;18.022;2022-11-15T01:25:14;1.42;;;1.20;;
12141;SDS011;6134;59.284;18.022;2022-11-15T01:28:01;1.13;;;1.02;;
12141;SDS011;6134;59.284;18.022;2022-11-15T01:30:49;0.95;;;0.95;;
12141;SDS011;6134;59.284;18.022;2022-11-15T01:33:36;1.33;;;1.08;;
12141;SDS011;6134;59.284;18.022;2022-11-15T01:36:24;0.90;;;0.90;;
12141;SDS011;6134;59.284;18.022;2022-11-15T01:39:12;1.23;;;1.13;;
12141;SDS011;6134;59.284;18.022;2022-11-15T01:42:00;1.30;;;1.20;;
12141;SDS011;6134;59.284;18.022;2022-11-15T01:44:48;1.00;;;1.00;;
12141;SDS011;6134;59.284;18.022;2022-11-15T01:47:36;1.23;;;0.90;;
12141;SDS011;6134;59.284;18.022;2022-11-15T01:50:24;1.10;;;1.00;;
12141;SDS011;6134;59.284;18.022;2022-11-15T01:53:15;1.35;;;1.00;;
12141;SDS011;6134;59.284;18.022;2022-11-15T01:56:02;1.42;;;1.10;;
12141;SDS011;6134;59.284;18.022;2022-11-15T01:58:51;0.80;;;0.80;;
12141;SDS011;6134;59.284;18.022;2022-11-15T02:01:39;2.47;;;1.30;;
12141;SDS011;6134;59.284;18.022;2022-11-15T02:04:28;1.30;;;1.20;;
12141;SDS011;6134;59.284;18.022;2022-11-15T02:07:16;1.60;;;1.20;;
12141;SDS011;6134;59.284;18.022;2022-11-15T02:10:06;1.75;;;1.23;;
12141;SDS011;6134;59.284;18.022;2022-11-15T02:12:54;0.95;;;0.90;;
12141;SDS011;6134;59.284;18.022;2022-11-15T02:15:43;1.23;;;0.82;;
12141;SDS011;6134;59.284;18.022;2022-11-15T02:18:37;0.88;;;0.80;;
12141;SDS011;6134;59.284;18.022;2022-11-15T02:21:28;2.33;;;0.80;;
12141;SDS011;6134;59.284;18.022;2022-11-15T02:24:33;0.70;;;0.70;;
12141;SDS011;6134;59.284;18.022;2022-11-15T02:27:36;0.80;;;0.80;;
12141;SDS011;6134;59.284;18.022;2022-11-15T02:30:33;1.98;;;1.65;;
12141;SDS011;6134;59.284;18.022;2022-11-15T02:33:27;1.10;;;1.00;;
12141;SDS011;6134;59.284;18.022;2022-11-15T02:36:18;1.10;;;1.00;;
12141;SDS011;6134;59.284;18.022;2022-11-15T02:39:10;1.02;;;0.93;;
12141;SDS011;6134;59.284;18.022;2022-11-15T02:42:01;1.23;;;1.13;;
12141;SDS011;6134;59.284;18.022;2022-11-15T02:44:50;1.80;;;1.30;;
12141;SDS011;6134;59.284;18.022;2022-11-15T02:47:40;2.10;;;1.60;;
12141;SDS011;6134;59.284;18.022;2022-11-15T02:50:29;1.80;;;1.50;;
12141;SDS011;6134;59.284;18.022;2022-11-15T02:53:16;1.50;;;1.40;;
12141;SDS011;6134;59.284;18.022;2022-11-15T02:56:03;1.45;;;1.20;;
12141;SDS011;6134;59.284;18.022;2022-11-15T02:59:00;1.40;;;1.30;;
12141;SDS011;6134;59.284;18.022;2022-11-15T03:01:55;2.63;;;1.60;;
12141;SDS011;6134;59.284;18.022;2022-11-15T03:04:49;2.28;;;1.60;;
12141;SDS011;6134;59.284;18.022;2022-11-15T03:07:40;1.77;;;1.50;;
12141;SDS011;6134;59.284;18.022;2022-11-15T03:10:32;2.05;;;1.85;;
12141;SDS011;6134;59.284;18.022;2022-11-15T03:13:24;1.80;;;1.40;;
12141;SDS011;6134;59.284;18.022;2022-11-15T03:16:15;1.40;;;1.30;;
12141;SDS011;6134;59.284;18.022;2022-11-15T03:19:06;2.13;;;1.70;;
12141;SDS011;6134;59.284;18.022;2022-11-15T03:21:56;2.08;;;1.50;;
12141;SDS011;6134;59.284;18.022;2022-11-15T03:24:45;2.47;;;1.45;;
12141;SDS011;6134;59.284;18.022;2022-11-15T03:27:36;1.92;;;1.30;;
12141;SDS011;6134;59.284;18.022;2022-11-15T03:30:25;1.10;;;1.02;;
12141;SDS011;6134;59.284;18.022;2022-11-15T03:33:12;1.10;;;1.00;;
12141;SDS011;6134;59.284;18.022;2022-11-15T03:36:00;1.85;;;1.27;;
12141;SDS011;6134;59.284;18.022;2022-11-15T03:38:49;1.83;;;1.33;;
12141;SDS011;6134;59.284;18.022;2022-11-15T03:41:37;1.52;;;1.25;;
12141;SDS011;6134;59.284;18.022;2022-11-15T03:44:33;1.42;;;1.20;;
12141;SDS011;6134;59.284;18.022;2022-11-15T03:47:23;2.22;;;1.20;;
12141;SDS011;6134;59.284;18.022;2022-11-15T03:50:13;1.55;;;1.20;;
12141;SDS011;6134;59.284;18.022;2022-11-15T03:53:00;1.88;;;1.20;;
12141;SDS011;6134;59.284;18.022;2022-11-15T03:55:49;1.92;;;1.45;;
12141;SDS011;6134;59.284;18.022;2022-11-15T03:58:37;3.08;;;1.50;;
12141;SDS011;6134;59.284;18.022;2022-11-15T04:01:24;2.42;;;1.45;;
12141;SDS011;6134;59.284;18.022;2022-11-15T04:04:11;2.03;;;1.40;;
12141;SDS011;6134;59.284;18.022;2022-11-15T04:06:58;1.40;;;1.30;;
12141;SDS011;6134;59.284;18.022;2022-11-15T04:09:46;1.38;;;1.27;;
12141;SDS011;6134;59.284;18.022;2022-11-15T04:12:49;2.55;;;1.40;;
12141;SDS011;6134;59.284;18.022;2022-11-15T04:15:37;1.20;;;1.10;;
12141;SDS011;6134;59.284;18.022;2022-11-15T04:18:24;2.05;;;1.27;;
12141;SDS011;6134;59.284;18.022;2022-11-15T04:21:10;1.23;;;1.13;;
12141;SDS011;6134;59.284;18.022;2022-11-15T04:24:15;1.30;;;1.20;;
12141;SDS011;6134;59.284;18.022;2022-11-15T04:27:03;1.65;;;1.55;;
12141;SDS011;6134;59.284;18.022;2022-11-15T04:29:51;1.55;;;1.40;;
12141;SDS011;6134;59.284;18.022;2022-11-15T04:32:38;2.72;;;1.80;;
12141;SDS011;6134;59.284;18.022;2022-11-15T04:35:25;1.45;;;1.35;;
12141;SDS011;6134;59.284;18.022;2022-11-15T04:38:13;1.50;;;1.40;;
12141;SDS011;6134;59.284;18.022;2022-11-15T04:41:00;1.88;;;1.52;;
12141;SDS011;6134;59.284;18.022;2022-11-15T04:43:47;1.55;;;1.30;;
12141;SDS011;6134;59.284;18.022;2022-11-15T04:46:36;1.73;;;1.30;;
12141;SDS011;6134;59.284;18.022;2022-11-15T04:49:23;1.48;;;1.30;;
12141;SDS011;6134;59.284;18.022;2022-11-15T04:52:10;2.78;;;1.70;;
12141;SDS011;6134;59.284;18.022;2022-11-15T04:54:57;1.65;;;1.55;;
12141;SDS011;6134;59.284;18.022;2022-11-15T04:57:58;2.15;;;1.50;;
12141;SDS011;6134;59.284;18.022;2022-11-15T05:00:45;1.40;;;1.30;;
12141;SDS011;6134;59.284;18.022;2022-11-15T05:03:34;1.70;;;1.50;;
12141;SDS011;6134;59.284;18.022;2022-11-15T05:06:39;3.03;;;1.80;;
12141;SDS011;6134;59.284;18.022;2022-11-15T05:09:26;2.60;;;1.67;;
12141;SDS011;6134;59.284;18.022;2022-11-15T05:12:14;2.20;;;1.42;;
12141;SDS011;6134;59.284;18.022;2022-11-15T05:15:01;2.08;;;1.60;;
12141;SDS011;6134;59.284;18.022;2022-11-15T05:17:48;2.20;;;1.60;;
12141;SDS011;6134;59.284;18.022;2022-11-15T05:20:37;2.83;;;1.75;;
12141;SDS011;6134;59.284;18.022;2022-11-15T05:23:24;2.63;;;1.70;;
12141;SDS011;6134;59.284;18.022;2022-11-15T05:26:12;1.75;;;1.52;;
12141;SDS011;6134;59.284;18.022;2022-11-15T05:28:59;1.80;;;1.30;;
12141;SDS011;6134;59.284;18.022;2022-11-15T05:31:47;1.80;;;1.60;;
12141;SDS011;6134;59.284;18.022;2022-11-15T05:34:34;2.25;;;1.50;;
12141;SDS011;6134;59.284;18.022;2022-11-15T05:37:23;2.35;;;1.67;;
12141;SDS011;6134;59.284;18.022;2022-11-15T05:40:10;3.00;;;1.85;;
12141;SDS011;6134;59.284;18.022;2022-11-15T05:42:57;3.78;;;1.55;;
12141;SDS011;6134;59.284;18.022;2022-11-15T05:45:45;2.58;;;1.73;;
12141;SDS011;6134;59.284;18.022;2022-11-15T05:48:32;1.48;;;1.33;;
12141;SDS011;6134;59.284;18.022;2022-11-15T05:51:21;2.65;;;1.67;;
12141;SDS011;6134;59.284;18.022;2022-11-15T05:54:10;2.42;;;1.95;;
12141;SDS011;6134;59.284;18.022;2022-11-15T05:56:58;1.80;;;1.70;;
12141;SDS011;6134;59.284;18.022;2022-11-15T05:59:46;3.72;;;1.85;;
12141;SDS011;6134;59.284;18.022;2022-11-15T06:02:33;4.43;;;2.03;;
12141;SDS011;6134;59.284;18.022;2022-11-15T06:05:20;2.00;;;1.80;;
12141;SDS011;6134;59.284;18.022;2022-11-15T06:08:07;6.32;;;2.90;;
12141;SDS011;6134;59.284;18.022;2022-11-15T06:11:02;2.53;;;2.15;;
12141;SDS011;6134;59.284;18.022;2022-11-15T06:13:49;6.07;;;2.22;;
12141;SDS011;6134;59.284;18.022;2022-11-15T06:16:36;2.83;;;1.83;;
12141;SDS011;6134;59.284;18.022;2022-11-15T06:19:23;5.45;;;1.70;;
12141;SDS011;6134;59.284;18.022;2022-11-15T06:22:10;1.55;;;1.15;;
12141;SDS011;6134;59.284;18.022;2022-11-15T06:24:57;1.35;;;1.25;;
12141;SDS011;6134;59.284;18.022;2022-11-15T06:27:52;2.10;;;1.10;;
12141;SDS011;6134;59.284;18.022;2022-11-15T06:30:39;3.28;;;1.42;;
12141;SDS011;6134;59.284;18.022;2022-11-15T06:33:26;2.78;;;1.40;;
12141;SDS011;6134;59.284;18.022;2022-11-15T06:36:14;5.47;;;1.80;;
12141;SDS011;6134;59.284;18.022;2022-11-15T06:39:02;3.53;;;1.10;;
12141;SDS011;6134;59.284;18.022;2022-11-15T06:41:49;5.25;;;1.38;;
12141;SDS011;6134;59.284;18.022;2022-11-15T06:44:38;3.88;;;1.33;;
12141;SDS011;6134;59.284;18.022;2022-11-15T06:47:25;5.68;;;1.75;;
12141;SDS011;6134;59.284;18.022;2022-11-15T06:50:12;3.60;;;1.23;;
12141;SDS011;6134;59.284;18.022;2022-11-15T06:53:00;2.67;;;0.93;;
12141;SDS011;6134;59.284;18.022;2022-11-15T06:55:48;3.13;;;1.02;;
12141;SDS011;6134;59.284;18.022;2022-11-15T06:58:39;3.30;;;1.23;;
12141;SDS011;6134;59.284;18.022;2022-11-15T07:01:28;7.65;;;1.30;;
12141;SDS011;6134;59.284;18.022;2022-11-15T07:04:16;1.25;;;1.00;;
12141;SDS011;6134;59.284;18.022;2022-11-15T07:07:03;1.00;;;0.90;;
12141;SDS011;6134;59.284;18.022;2022-11-15T07:09:50;3.15;;;1.10;;
12141;SDS011;6134;59.284;18.022;2022-11-15T07:12:38;2.35;;;1.10;;
12141;SDS011;6134;59.284;18.022;2022-11-15T07:15:25;3.08;;;0.93;;
12141;SDS011;6134;59.284;18.022;2022-11-15T07:18:14;5.57;;;1.20;;
12141;SDS011;6134;59.284;18.022;2022-11-15T07:21:01;2.00;;;0.85;;
12141;SDS011;6134;59.284;18.022;2022-11-15T07:23:49;3.08;;;0.90;;
12141;SDS011;6134;59.284;18.022;2022-11-15T07:26:37;4.38;;;1.27;;
12141;SDS011;6134;59.284;18.022;2022-11-15T07:29:24;3.22;;;1.00;;
12141;SDS011;6134;59.284;18.022;2022-11-15T07:32:11;3.35;;;1.40;;
12141;SDS011;6134;59.284;18.022;2022-11-15T07:34:59;4.90;;;1.48;;
12141;SDS011;6134;59.284;18.022;2022-11-15T07:37:52;3.00;;;1.25;;
12141;SDS011;6134;59.284;18.022;2022-11-15T07:40:39;4.82;;;1.20;;
12141;SDS011;6134;59.284;18.022;2022-11-15T07:43:26;1.67;;;1.13;;
12141;SDS011;6134;59.284;18.022;2022-11-15T07:46:15;6.45;;;1.10;;
12141;SDS011;6134;59.284;18.022;2022-11-15T07:49:02;3.65;;;1.40;;
12141;SDS011;6134;59.284;18.022;2022-11-15T07:51:50;3.60;;;1.38;;
12141;SDS011;6134;59.284;18.022;2022-11-15T07:54:38;3.65;;;1.17;;
12141;SDS011;6134;59.284;18.022;2022-11-15T07:57:25;5.20;;;1.40;;
12141;SDS011;6134;59.284;18.022;2022-11-15T08:00:13;4.05;;;1.20;;
12141;SDS011;6134;59.284;18.022;2022-11-15T08:03:01;2.40;;;1.13;;
12141;SDS011;6134;59.284;18.022;2022-11-15T08:05:49;6.18;;;1.23;;
12141;SDS011;6134;59.284;18.022;2022-11-15T08:08:38;3.00;;;1.48;;
12141;SDS011;6134;59.284;18.022;2022-11-15T08:11:25;3.72;;;1.30;;
12141;SDS011;6134;59.284;18.022;2022-11-15T08:14:12;2.88;;;1.00;;
12141;SDS011;6134;59.284;18.022;2022-11-15T08:17:00;3.17;;;0.90;;
12141;SDS011;6134;59.284;18.022;2022-11-15T08:19:47;3.67;;;1.10;;
12141;SDS011;6134;59.284;18.022;2022-11-15T08:22:34;4.55;;;1.10;;
12141;SDS011;6134;59.284;18.022;2022-11-15T08:25:23;2.70;;;1.00;;
12141;SDS011;6134;59.284;18.022;2022-11-15T08:28:11;2.58;;;0.98;;
12141;SDS011;6134;59.284;18.022;2022-11-15T08:30:58;3.00;;;1.15;;
12141;SDS011;6134;59.284;18.022;2022-11-15T08:33:45;5.30;;;1.23;;
12141;SDS011;6134;59.284;18.022;2022-11-15T08:36:33;3.08;;;0.95;;
12141;SDS011;6134;59.284;18.022;2022-11-15T08:39:29;4.97;;;1.50;;
12141;SDS011;6134;59.284;18.022;2022-11-15T08:42:18;2.72;;;1.40;;
12141;SDS011;6134;59.284;18.022;2022-11-15T08:45:06;2.72;;;1.08;;
12141;SDS011;6134;59.284;18.022;2022-11-15T08:47:53;5.55;;;1.15;;
12141;SDS011;6134;59.284;18.022;2022-11-15T08:50:40;7.18;;;1.27;;
12141;SDS011;6134;59.284;18.022;2022-11-15T08:53:28;2.42;;;1.30;;
12141;SDS011;6134;59.284;18.022;2022-11-15T08:56:15;3.08;;;1.20;;
12141;SDS011;6134;59.284;18.022;2022-11-15T08:59:04;3.03;;;1.05;;
12141;SDS011;6134;59.284;18.022;2022-11-15T09:01:51;1.50;;;1.00;;
12141;SDS011;6134;59.284;18.022;2022-11-15T09:04:39;3.03;;;1.05;;
12141;SDS011;6134;59.284;18.022;2022-11-15T09:07:26;2.97;;;1.00;;
12141;SDS011;6134;59.284;18.022;2022-11-15T09:10:15;4.63;;;0.82;;
12141;SDS011;6134;59.284;18.022;2022-11-15T09:13:02;2.25;;;1.13;;
12141;SDS011;6134;59.284;18.022;2022-11-15T09:15:51;13.57;;;1.85;;
12141;SDS011;6134;59.284;18.022;2022-11-15T09:18:38;3.42;;;0.90;;
12141;SDS011;6134;59.284;18.022;2022-11-15T09:21:26;2.42;;;1.08;;
12141;SDS011;6134;59.284;18.022;2022-11-15T09:24:13;1.08;;;0.77;;
12141;SDS011;6134;59.284;18.022;2022-11-15T09:27:00;2.28;;;0.70;;
12141;SDS011;6134;59.284;18.022;2022-11-15T09:29:47;2.35;;;0.70;;
12141;SDS011;6134;59.284;18.022;2022-11-15T09:32:36;2.67;;;0.80;;
12141;SDS011;6134;59.284;18.022;2022-11-15T09:35:23;2.28;;;0.88;;
12141;SDS011;6134;59.284;18.022;2022-11-15T09:38:11;2.97;;;0.90;;
12141;SDS011;6134;59.284;18.022;2022-11-15T09:44:07;2.83;;;0.93;;
12141;SDS011;6134;59.284;18.022;2022-11-15T09:46:57;3.50;;;0.80;;
12141;SDS011;6134;59.284;18.022;2022-11-15T09:49:45;2.15;;;0.85;;
12141;SDS011;6134;59.284;18.022;2022-11-15T09:52:25;1.13;;;0.88;;
12141;SDS011;6134;59.284;18.022;2022-11-15T09:54:53;1.73;;;0.80;;
12141;SDS011;6134;59.284;18.022;2022-11-15T09:57:24;2.83;;;0.95;;
12141;SDS011;6134;59.284;18.022;2022-11-15T09:59:59;4.32;;;1.15;;
12141;SDS011;6134;59.284;18.022;2022-11-15T10:02:58;3.17;;;1.05;;
12141;SDS011;6134;59.284;18.022;2022-11-15T10:05:30;5.35;;;1.23;;
12141;SDS011;6134;59.284;18.022;2022-11-15T10:08:01;2.83;;;1.08;;
12141;SDS011;6134;59.284;18.022;2022-11-15T10:10:34;7.85;;;1.25;;
12141;SDS011;6134;59.284;18.022;2022-11-15T10:13:06;3.85;;;1.52;;
12141;SDS011;6134;59.284;18.022;2022-11-15T10:15:36;2.22;;;1.05;;
12141;SDS011;6134;59.284;18.022;2022-11-15T10:18:06;5.20;;;0.88;;
12141;SDS011;6134;59.284;18.022;2022-11-15T10:20:42;2.92;;;0.90;;
12141;SDS011;6134;59.284;18.022;2022-11-15T10:23:14;4.75;;;1.00;;
12141;SDS011;6134;59.284;18.022;2022-11-15T10:25:42;2.60;;;0.80;;
12141;SDS011;6134;59.284;18.022;2022-11-15T10:28:13;0.95;;;0.70;;
12141;SDS011;6134;59.284;18.022;2022-11-15T10:30:43;2.25;;;0.80;;
12141;SDS011;6134;59.284;18.022;2022-11-15T10:33:25;2.60;;;1.00;;
12141;SDS011;6134;59.284;18.022;2022-11-15T10:38:51;3.38;;;0.80;;
12141;SDS011;6134;59.284;18.022;2022-11-15T10:41:21;1.60;;;0.80;;
12141;SDS011;6134;59.284;18.022;2022-11-15T10:44:01;2.25;;;0.93;;
12141;SDS011;6134;59.284;18.022;2022-11-15T10:46:30;1.58;;;0.90;;
12141;SDS011;6134;59.284;18.022;2022-11-15T10:49:15;1.10;;;0.85;;
12141;SDS011;6134;59.284;18.022;2022-11-15T10:51:45;6.65;;;1.20;;
12141;SDS011;6134;59.284;18.022;2022-11-15T10:54:18;5.65;;;1.25;;
12141;SDS011;6134;59.284;18.022;2022-11-15T10:56:48;3.70;;;1.00;;
12141;SDS011;6134;59.284;18.022;2022-11-15T10:59:20;3.55;;;1.10;;
12141;SDS011;6134;59.284;18.022;2022-11-15T11:01:50;4.93;;;0.90;;
12141;SDS011;6134;59.284;18.022;2022-11-15T11:04:18;3.38;;;0.82;;
12141;SDS011;6134;59.284;18.022;2022-11-15T11:06:48;5.32;;;1.05;;
12141;SDS011;6134;59.284;18.022;2022-11-15T11:09:27;3.42;;;0.80;;
12141;SDS011;6134;59.284;18.022;2022-11-15T11:11:56;4.63;;;1.02;;
12141;SDS011;6134;59.284;18.022;2022-11-15T11:14:26;3.85;;;1.17;;
12141;SDS011;6134;59.284;18.022;2022-11-15T11:17:00;4.68;;;0.88;;
12141;SDS011;6134;59.284;18.022;2022-11-15T11:19:44;3.20;;;1.13;;
12141;SDS011;6134;59.284;18.022;2022-11-15T11:22:19;0.90;;;0.80;;
12141;SDS011;6134;59.284;18.022;2022-11-15T11:24:55;2.30;;;1.00;;
12141;SDS011;6134;59.284;18.022;2022-11-15T11:27:29;2.40;;;0.82;;
12141;SDS011;6134;59.284;18.022;2022-11-15T11:30:03;3.05;;;1.02;;
12141;SDS011;6134;59.284;18.022;2022-11-15T11:32:40;2.97;;;1.02;;
12141;SDS011;6134;59.284;18.022;2022-11-15T11:35:11;2.67;;;1.00;;
12141;SDS011;6134;59.284;18.022;2022-11-15T11:37:43;10.00;;;1.80;;
12141;SDS011;6134;59.284;18.022;2022-11-15T11:40:19;2.15;;;0.90;;
12141;SDS011;6134;59.284;18.022;2022-11-15T11:42:51;1.80;;;1.02;;
12141;SDS011;6134;59.284;18.022;2022-11-15T11:45:30;2.25;;;0.75;;
12141;SDS011;6134;59.284;18.022;2022-11-15T11:48:02;3.80;;;1.00;;
12141;SDS011;6134;59.284;18.022;2022-11-15T11:50:33;2.83;;;1.17;;
12141;SDS011;6134;59.284;18.022;2022-11-15T11:53:05;2.67;;;1.13;;
12141;SDS011;6134;59.284;18.022;2022-11-15T11:55:39;4.20;;;1.35;;
12141;SDS011;6134;59.284;18.022;2022-11-15T11:58:12;2.05;;;1.05;;
12141;SDS011;6134;59.284;18.022;2022-11-15T12:00:44;1.50;;;1.10;;
12141;SDS011;6134;59.284;18.022;2022-11-15T12:03:20;1.88;;;1.00;;
12141;SDS011;6134;59.284;18.022;2022-11-15T12:05:54;1.48;;;0.90;;
12141;SDS011;6134;59.284;18.022;2022-11-15T12:08:25;4.00;;;1.15;;
12141;SDS011;6134;59.284;18.022;2022-11-15T12:11:00;1.20;;;0.90;;
12141;SDS011;6134;59.284;18.022;2022-11-15T12:13:29;5.03;;;1.25;;
12141;SDS011;6134;59.284;18.022;2022-11-15T12:16:04;4.25;;;1.15;;
12141;SDS011;6134;59.284;18.022;2022-11-15T12:18:36;5.57;;;1.02;;
12141;SDS011;6134;59.284;18.022;2022-11-15T12:21:06;10.38;;;1.52;;
12141;SDS011;6134;59.284;18.022;2022-11-15T12:23:38;4.53;;;0.93;;
12141;SDS011;6134;59.284;18.022;2022-11-15T12:26:09;1.60;;;1.13;;
12141;SDS011;6134;59.284;18.022;2022-11-15T12:28:40;7.22;;;1.40;;
12141;SDS011;6134;59.284;18.022;2022-11-15T12:31:32;2.72;;;1.10;;
12141;SDS011;6134;59.284;18.022;2022-11-15T12:34:05;2.78;;;1.00;;
12141;SDS011;6134;59.284;18.022;2022-11-15T12:36:42;2.60;;;1.23;;
12141;SDS011;6134;59.284;18.022;2022-11-15T12:39:11;2.38;;;1.13;;
12141;SDS011;6134;59.284;18.022;2022-11-15T12:41:42;2.75;;;1.10;;
12141;SDS011;6134;59.284;18.022;2022-11-15T12:44:11;2.58;;;1.15;;
12141;SDS011;6134;59.284;18.022;2022-11-15T12:47:00;2.15;;;1.08;;
12141;SDS011;6134;59.284;18.022;2022-11-15T12:49:43;2.47;;;1.00;;
12141;SDS011;6134;59.284;18.022;2022-11-15T12:52:12;1.70;;;0.90;;
12141;SDS011;6134;59.284;18.022;2022-11-15T12:55:00;2.25;;;0.75;;
12141;SDS011;6134;59.284;18.022;2022-11-15T12:57:38;2.15;;;0.95;;
12141;SDS011;6134;59.284;18.022;2022-11-15T13:03:12;2.67;;;1.15;;
12141;SDS011;6134;59.284;18.022;2022-11-15T13:14:41;2.17;;;0.90;;
12141;SDS011;6134;59.284;18.022;2022-11-15T13:17:27;6.78;;;1.17;;
12141;SDS011;6134;59.284;18.022;2022-11-15T13:20:02;2.13;;;0.90;;
12141;SDS011;6134;59.284;18.022;2022-11-15T13:22:38;4.30;;;0.90;;
12141;SDS011;6134;59.284;18.022;2022-11-15T13:25:27;1.25;;;0.90;;
12141;SDS011;6134;59.284;18.022;2022-11-15T13:27:59;5.60;;;1.23;;
12141;SDS011;6134;59.284;18.022;2022-11-15T13:30:35;3.38;;;1.17;;
12141;SDS011;6134;59.284;18.022;2022-11-15T13:33:07;2.22;;;1.10;;
12141;SDS011;6134;59.284;18.022;2022-11-15T13:35:38;2.30;;;1.10;;
12141;SDS011;6134;59.284;18.022;2022-11-15T13:38:11;6.43;;;1.40;;
12141;SDS011;6134;59.284;18.022;2022-11-15T13:40:45;3.30;;;1.00;;
12141;SDS011;6134;59.284;18.022;2022-11-15T13:43:17;1.15;;;1.02;;
12141;SDS011;6134;59.284;18.022;2022-11-15T13:45:56;2.17;;;1.23;;
12141;SDS011;6134;59.284;18.022;2022-11-15T13:48:31;3.65;;;1.10;;
12141;SDS011;6134;59.284;18.022;2022-11-15T13:51:01;2.42;;;1.05;;
12141;SDS011;6134;59.284;18.022;2022-11-15T13:53:31;1.92;;;1.00;;
12141;SDS011;6134;59.284;18.022;2022-11-15T13:56:01;1.98;;;0.95;;
12141;SDS011;6134;59.284;18.022;2022-11-15T13:58:30;4.13;;;1.27;;
12141;SDS011;6134;59.284;18.022;2022-11-15T14:01:02;3.17;;;1.15;;
12141;SDS011;6134;59.284;18.022;2022-11-15T14:03:31;5.40;;;1.08;;
12141;SDS011;6134;59.284;18.022;2022-11-15T14:06:08;1.90;;;1.00;;
12141;SDS011;6134;59.284;18.022;2022-11-15T14:08:38;1.08;;;0.95;;
12141;SDS011;6134;59.284;18.022;2022-11-15T14:11:14;2.28;;;1.27;;
12141;SDS011;6134;59.284;18.022;2022-11-15T14:13:58;5.72;;;1.45;;
12141;SDS011;6134;59.284;18.022;2022-11-15T14:16:34;4.90;;;1.25;;
12141;SDS011;6134;59.284;18.022;2022-11-15T14:19:03;3.10;;;1.20;;
12141;SDS011;6134;59.284;18.022;2022-11-15T14:21:32;4.35;;;1.13;;
12141;SDS011;6134;59.284;18.022;2022-11-15T14:24:14;3.90;;;1.20;;
12141;SDS011;6134;59.284;18.022;2022-11-15T14:26:43;5.10;;;0.88;;
12141;SDS011;6134;59.284;18.022;2022-11-15T14:29:21;3.63;;;0.73;;
12141;SDS011;6134;59.284;18.022;2022-11-15T14:31:52;4.57;;;1.10;;
12141;SDS011;6134;59.284;18.022;2022-11-15T14:34:21;5.72;;;1.02;;
12141;SDS011;6134;59.284;18.022;2022-11-15T14:36:49;3.42;;;1.02;;
12141;SDS011;6134;59.284;18.022;2022-11-15T14:39:18;1.55;;;0.90;;
12141;SDS011;6134;59.284;18.022;2022-11-15T14:41:47;5.13;;;1.45;;
12141;SDS011;6134;59.284;18.022;2022-11-15T14:44:16;3.65;;;1.08;;
12141;SDS011;6134;59.284;18.022;2022-11-15T14:46:47;3.50;;;1.08;;
12141;SDS011;6134;59.284;18.022;2022-11-15T14:49:16;7.03;;;1.50;;
12141;SDS011;6134;59.284;18.022;2022-11-15T14:51:45;4.43;;;1.05;;
12141;SDS011;6134;59.284;18.022;2022-11-15T14:54:14;5.18;;;1.00;;
12141;SDS011;6134;59.284;18.022;2022-11-15T14:56:42;2.25;;;0.90;;
12141;SDS011;6134;59.284;18.022;2022-11-15T14:59:11;1.70;;;0.95;;
12141;SDS011;6134;59.284;18.022;2022-11-15T15:01:40;2.15;;;1.00;;
12141;SDS011;6134;59.284;18.022;2022-11-15T15:04:08;1.83;;;0.90;;
12141;SDS011;6134;59.284;18.022;2022-11-15T15:06:39;2.97;;;1.00;;
12141;SDS011;6134;59.284;18.022;2022-11-15T15:09:08;4.88;;;1.20;;
12141;SDS011;6134;59.284;18.022;2022-11-15T15:11:36;2.60;;;0.90;;
12141;SDS011;6134;59.284;18.022;2022-11-15T15:14:05;1.45;;;0.90;;
12141;SDS011;6134;59.284;18.022;2022-11-15T15:16:34;2.45;;;1.30;;
12141;SDS011;6134;59.284;18.022;2022-11-15T15:19:02;0.98;;;0.88;;
12141;SDS011;6134;59.284;18.022;2022-11-15T15:21:31;1.30;;;0.90;;
12141;SDS011;6134;59.284;18.022;2022-11-15T15:24:04;1.33;;;0.95;;
12141;SDS011;6134;59.284;18.022;2022-11-15T15:26:33;2.72;;;1.10;;
12141;SDS011;6134;59.284;18.022;2022-11-15T15:29:03;4.97;;;1.02;;
12141;SDS011;6134;59.284;18.022;2022-11-15T15:31:31;3.03;;;1.00;;
12141;SDS011;6134;59.284;18.022;2022-11-15T15:34:00;1.10;;;0.85;;
12141;SDS011;6134;59.284;18.022;2022-11-15T15:36:28;2.25;;;0.75;;
12141;SDS011;6134;59.284;18.022;2022-11-15T15:38:57;1.17;;;0.80;;
12141;SDS011;6134;59.284;18.022;2022-11-15T15:41:27;2.55;;;0.88;;
12141;SDS011;6134;59.284;18.022;2022-11-15T15:43:56;1.92;;;0.90;;
12141;SDS011;6134;59.284;18.022;2022-11-15T15:46:24;4.90;;;0.98;;
12141;SDS011;6134;59.284;18.022;2022-11-15T15:48:53;5.38;;;0.93;;
12141;SDS011;6134;59.284;18.022;2022-11-15T15:51:22;1.65;;;1.00;;
12141;SDS011;6134;59.284;18.022;2022-11-15T15:53:51;0.95;;;0.90;;
12141;SDS011;6134;59.284;18.022;2022-11-15T15:56:23;1.55;;;0.95;;
12141;SDS011;6134;59.284;18.022;2022-11-15T15:58:53;2.47;;;1.75;;
12141;SDS011;6134;59.284;18.022;2022-11-15T16:01:22;5.90;;;1.55;;
12141;SDS011;6134;59.284;18.022;2022-11-15T16:03:51;1.95;;;0.90;;
12141;SDS011;6134;59.284;18.022;2022-11-15T16:06:27;3.97;;;1.05;;
12141;SDS011;6134;59.284;18.022;2022-11-15T16:09:00;2.78;;;1.02;;
12141;SDS011;6134;59.284;18.022;2022-11-15T16:11:46;2.53;;;1.00;;
12141;SDS011;6134;59.284;18.022;2022-11-15T16:14:16;1.77;;;1.00;;
12141;SDS011;6134;59.284;18.022;2022-11-15T16:16:45;3.17;;;1.00;;
12141;SDS011;6134;59.284;18.022;2022-11-15T16:19:13;1.52;;;1.13;;
12141;SDS011;6134;59.284;18.022;2022-11-15T16:21:42;1.70;;;1.20;;
12141;SDS011;6134;59.284;18.022;2022-11-15T16:24:10;3.65;;;1.20;;
12141;SDS011;6134;59.284;18.022;2022-11-15T16:26:39;1.70;;;1.00;;
12141;SDS011;6134;59.284;18.022;2022-11-15T16:29:08;2.45;;;1.20;;
12141;SDS011;6134;59.284;18.022;2022-11-15T16:31:39;2.28;;;1.08;;
12141;SDS011;6134;59.284;18.022;2022-11-15T16:34:08;1.85;;;1.70;;